createdAt,value
2018-06-10T00:01:54.541Z,20.73
2018-06-10T00:04:22.815Z,20.23
2018-06-10T00:06:51.154Z,20.65
2018-06-10T00:09:19.127Z,19.40
2018-06-10T00:11:47.386Z,20.60
2018-06-10T00:14:15.655Z,19.35
2018-06-10T00:16:43.919Z,20.20
2018-06-10T00:19:12.171Z,22.35
2018-06-10T00:21:40.451Z,23.20
2018-06-10T00:24:08.672Z,22.35
2018-06-10T00:26:36.975Z,21.07
2018-06-10T00:29:10.686Z,21.30
2018-06-10T00:31:38.931Z,22.73
2018-06-10T00:34:07.178Z,21.20
2018-06-10T00:36:35.481Z,22.65
2018-06-10T00:39:03.838Z,22.67
2018-06-10T00:41:32.133Z,25.27
2018-06-10T00:44:00.360Z,24.18
2018-06-10T00:46:28.604Z,23.55
2018-06-10T00:48:57.028Z,23.70
2018-06-10T00:51:25.278Z,25.03
2018-06-10T00:53:53.578Z,23.73
2018-06-10T00:56:33.420Z,22.40
2018-06-10T00:59:01.667Z,22.00
2018-06-10T01:01:29.899Z,26.20
2018-06-10T01:03:58.147Z,24.77
2018-06-10T01:06:26.381Z,23.77
2018-06-10T01:08:54.591Z,24.43
2018-06-10T01:11:22.859Z,26.15
2018-06-10T01:13:51.092Z,24.67
2018-06-10T01:16:19.353Z,24.10
2018-06-10T01:18:47.627Z,24.20
2018-06-10T01:21:15.883Z,23.52
2018-06-10T01:23:44.150Z,21.93
2018-06-10T01:26:12.399Z,26.70
2018-06-10T01:28:40.644Z,24.80
2018-06-10T01:31:08.909Z,24.72
2018-06-10T01:33:37.146Z,23.73
2018-06-10T01:36:05.384Z,23.70
2018-06-10T01:38:33.663Z,24.07
2018-06-10T01:41:01.930Z,23.20
2018-06-10T01:43:30.194Z,23.22
2018-06-10T01:45:58.446Z,23.80
2018-06-10T01:48:26.706Z,24.03
2018-06-10T01:50:54.969Z,24.05
2018-06-10T01:53:23.218Z,26.10
2018-06-10T01:55:51.470Z,26.48
2018-06-10T01:58:19.734Z,26.17
2018-06-10T02:00:47.970Z,29.42
2018-06-10T02:03:16.262Z,28.83
2018-06-10T02:05:44.507Z,29.10
2018-06-10T02:08:12.764Z,27.43
2018-06-10T02:10:41.008Z,24.98
2018-06-10T02:13:09.487Z,29.45
2018-06-10T02:15:37.729Z,26.05
2018-06-10T02:18:05.972Z,27.15
2018-06-10T02:20:34.220Z,28.38
2018-06-10T02:23:02.495Z,27.20
2018-06-10T02:25:30.754Z,28.87
2018-06-10T02:27:59.019Z,26.05
2018-06-10T02:30:27.278Z,27.37
2018-06-10T02:32:55.498Z,28.47
2018-06-10T02:35:23.774Z,27.98
2018-06-10T02:37:52.050Z,26.55
2018-06-10T02:40:20.295Z,26.97
2018-06-10T02:42:48.325Z,27.30
2018-06-10T02:45:16.583Z,26.85
2018-06-10T02:47:44.835Z,26.07
2018-06-10T02:50:13.166Z,27.20
2018-06-10T02:52:41.458Z,25.70
2018-06-10T02:55:09.722Z,28.00
2018-06-10T02:57:37.711Z,26.33
2018-06-10T03:00:06.180Z,26.30
2018-06-10T03:02:34.410Z,26.75
2018-06-10T03:05:02.658Z,28.73
2018-06-10T03:07:30.935Z,28.47
2018-06-10T03:09:59.217Z,31.02
2018-06-10T03:12:27.446Z,31.93
2018-06-10T03:14:55.698Z,31.90
2018-06-10T03:17:23.969Z,32.83
2018-06-10T03:19:52.208Z,32.42
2018-06-10T03:22:20.460Z,34.95
2018-06-10T03:24:48.712Z,32.05
2018-06-10T03:27:16.986Z,32.13
2018-06-10T03:29:45.320Z,36.33
2018-06-10T03:32:13.700Z,33.53
2018-06-10T03:34:41.944Z,33.83
2018-06-10T03:37:10.151Z,34.18
2018-06-10T03:39:38.417Z,34.27
2018-06-10T03:42:06.699Z,32.23
2018-06-10T03:44:34.955Z,35.13
2018-06-10T03:47:03.238Z,36.40
2018-06-10T03:49:31.471Z,32.67
2018-06-10T03:51:59.722Z,34.57
2018-06-10T03:54:27.964Z,33.78
2018-06-10T03:56:56.208Z,40.10
2018-06-10T03:59:24.457Z,34.23
2018-06-10T04:01:52.743Z,39.08
2018-06-10T04:04:21.006Z,33.95
2018-06-10T04:06:49.261Z,35.78
2018-06-10T04:09:17.519Z,34.95
2018-06-10T04:11:45.776Z,38.00
2018-06-10T04:14:14.082Z,34.10
2018-06-10T04:16:42.326Z,34.43
2018-06-10T04:19:10.564Z,38.40
2018-06-10T04:21:38.807Z,39.60
2018-06-10T04:24:07.048Z,38.55
2018-06-10T04:26:35.320Z,39.20
2018-06-10T04:29:03.576Z,36.13
2018-06-10T04:31:31.802Z,39.38
2018-06-10T04:34:00.320Z,37.42
2018-06-10T04:36:28.609Z,38.10
2018-06-10T04:38:56.870Z,37.98
2018-06-10T04:41:25.104Z,39.42
2018-06-10T04:43:53.393Z,37.98
2018-06-10T04:46:21.643Z,38.42
2018-06-10T04:48:49.887Z,36.85
2018-06-10T04:51:18.138Z,36.93
2018-06-10T04:53:46.458Z,36.30
2018-06-10T04:56:14.749Z,38.05
2018-06-10T04:58:43.019Z,38.58
2018-06-10T05:01:11.282Z,36.33
2018-06-10T05:03:39.558Z,36.45
2018-06-10T05:06:07.836Z,38.97
2018-06-10T05:08:36.067Z,38.65
2018-06-10T05:11:04.354Z,39.83
2018-06-10T05:13:32.579Z,39.63
2018-06-10T05:16:00.843Z,39.58
2018-06-10T05:18:29.105Z,38.87
2018-06-10T05:20:57.374Z,40.10
2018-06-10T05:23:25.641Z,41.00
2018-06-10T05:25:53.899Z,41.63
2018-06-10T05:28:22.165Z,38.20
2018-06-10T05:30:50.171Z,39.30
2018-06-10T05:33:18.420Z,38.33
2018-06-10T05:35:46.722Z,43.83
2018-06-10T05:38:14.990Z,37.38
2018-06-10T05:40:43.222Z,36.77
2018-06-10T05:43:11.480Z,40.60
2018-06-10T05:45:39.742Z,40.47
2018-06-10T05:48:08.061Z,37.40
2018-06-10T05:50:36.302Z,38.25
2018-06-10T05:53:04.565Z,37.50
2018-06-10T05:55:32.816Z,38.60
2018-06-10T05:58:01.088Z,43.68
2018-06-10T06:00:29.347Z,42.75
2018-06-10T06:02:57.606Z,39.95
2018-06-10T06:05:25.860Z,40.33
2018-06-10T06:07:54.149Z,44.27
2018-06-10T06:10:22.430Z,40.33
2018-06-10T06:12:50.778Z,39.35
2018-06-10T06:15:18.989Z,44.70
2018-06-10T06:17:47.202Z,38.65
2018-06-10T06:20:15.471Z,35.00
2018-06-10T06:22:43.719Z,37.08
2018-06-10T06:25:11.976Z,38.25
2018-06-10T06:27:40.254Z,38.48
2018-06-10T06:30:08.507Z,38.33
2018-06-10T06:32:36.773Z,36.60
2018-06-10T06:35:05.036Z,35.90
2018-06-10T06:37:33.308Z,41.58
2018-06-10T06:40:01.598Z,40.17
2018-06-10T06:42:29.864Z,37.93
2018-06-10T06:44:58.124Z,38.83
2018-06-10T06:47:26.394Z,34.78
2018-06-10T06:49:54.732Z,35.85
2018-06-10T06:52:23.034Z,35.48
2018-06-10T06:54:51.275Z,35.30
2018-06-10T06:57:19.550Z,36.68
2018-06-10T06:59:47.814Z,34.75
2018-06-10T07:02:16.083Z,33.88
2018-06-10T07:04:44.349Z,34.35
2018-06-10T07:07:12.611Z,39.17
2018-06-10T07:09:40.848Z,32.13
2018-06-10T07:12:09.092Z,36.48
2018-06-10T07:14:37.343Z,34.48
2018-06-10T07:17:06.052Z,33.50
2018-06-10T07:19:34.342Z,33.10
2018-06-10T07:22:02.591Z,40.17
2018-06-10T07:24:30.894Z,29.73
2018-06-10T07:26:59.186Z,31.73
2018-06-10T07:29:27.429Z,28.62
2018-06-10T07:31:55.712Z,27.67
2018-06-10T07:34:23.997Z,25.68
2018-06-10T07:36:52.207Z,27.45
2018-06-10T07:39:25.586Z,25.85
2018-06-10T07:41:53.929Z,24.92
2018-06-10T07:44:22.214Z,24.07
2018-06-10T07:46:50.482Z,25.68
2018-06-10T07:49:18.838Z,25.35
2018-06-10T07:51:47.110Z,24.77
2018-06-10T07:54:15.383Z,24.90
2018-06-10T07:56:43.713Z,25.40
2018-06-10T07:59:11.718Z,23.97
2018-06-10T08:01:39.993Z,21.23
2018-06-10T08:04:08.423Z,21.68
2018-06-10T08:06:36.660Z,23.27
2018-06-10T08:09:07.137Z,22.75
2018-06-10T08:11:35.411Z,19.52
2018-06-10T08:14:03.715Z,19.40
2018-06-10T08:16:32.051Z,19.40
2018-06-10T08:19:00.493Z,18.57
2018-06-10T08:21:28.740Z,19.20
2018-06-10T08:23:56.977Z,19.30
2018-06-10T08:26:25.272Z,18.85
2018-06-10T08:28:53.224Z,19.00
2018-06-10T08:31:21.488Z,19.70
2018-06-10T08:33:49.747Z,17.95
2018-06-10T08:36:18.058Z,18.37
2018-06-10T08:38:46.314Z,16.77
2018-06-10T08:41:14.562Z,17.50
2018-06-10T08:43:42.826Z,16.85
2018-06-10T08:46:11.091Z,16.70
2018-06-10T08:48:39.364Z,16.75
2018-06-10T08:51:07.689Z,16.00
2018-06-10T08:53:35.946Z,16.85
2018-06-10T08:56:04.206Z,15.40
2018-06-10T08:58:32.488Z,16.13
2018-06-10T09:01:00.728Z,15.70
2018-06-10T09:03:29.004Z,14.93
2018-06-10T09:05:57.265Z,15.35
2018-06-10T09:08:25.529Z,14.77
2018-06-10T09:10:53.790Z,14.30
2018-06-10T09:13:22.065Z,13.45
2018-06-10T09:15:50.842Z,14.23
2018-06-10T09:18:19.119Z,14.68
2018-06-10T09:20:47.382Z,14.18
2018-06-10T09:23:15.418Z,14.13
2018-06-10T09:25:43.706Z,14.43
2018-06-10T09:28:11.946Z,14.10
2018-06-10T09:30:40.219Z,14.05
2018-06-10T09:33:08.207Z,13.90
2018-06-10T09:35:36.468Z,13.28
2018-06-10T09:38:04.795Z,13.15
2018-06-10T09:40:33.057Z,13.27
2018-06-10T09:43:01.313Z,13.32
2018-06-10T09:45:29.602Z,16.87
2018-06-10T09:47:57.891Z,16.00
2018-06-10T09:50:26.158Z,14.60
2018-06-10T09:52:54.411Z,14.20
2018-06-10T09:55:22.487Z,15.68
2018-06-10T09:57:50.690Z,13.90
2018-06-10T10:00:22.700Z,14.35
2018-06-10T10:02:51.053Z,15.68
2018-06-10T10:05:19.300Z,15.85
2018-06-10T10:07:47.537Z,15.00
2018-06-10T10:10:15.842Z,16.23
2018-06-10T10:12:44.096Z,17.48
2018-06-10T10:15:12.385Z,16.82
2018-06-10T10:17:40.644Z,17.90
2018-06-10T10:20:08.903Z,17.23
2018-06-10T10:22:37.157Z,17.60
2018-06-10T10:25:05.411Z,18.40
2018-06-10T10:27:33.661Z,20.52
2018-06-10T10:30:01.932Z,20.80
2018-06-10T10:32:30.218Z,20.10
2018-06-10T10:34:58.494Z,19.37
2018-06-10T10:37:26.731Z,19.48
2018-06-10T10:39:54.986Z,17.20
2018-06-10T10:42:23.258Z,17.75
2018-06-10T10:44:51.535Z,17.17
2018-06-10T10:47:19.983Z,16.70
2018-06-10T10:49:48.246Z,16.90
2018-06-10T10:52:16.571Z,15.80
2018-06-10T10:54:44.806Z,15.60
2018-06-10T10:57:12.837Z,15.30
2018-06-10T10:59:41.104Z,14.85
2018-06-10T11:02:09.347Z,16.30
2018-06-10T11:04:37.606Z,16.80
2018-06-10T11:07:05.860Z,16.42
2018-06-10T11:09:33.856Z,16.87
2018-06-10T11:12:02.085Z,16.60
2018-06-10T11:14:30.338Z,17.57
2018-06-10T11:16:58.598Z,17.37
2018-06-10T11:19:27.562Z,17.52
2018-06-10T11:21:55.781Z,16.30
2018-06-10T11:24:24.021Z,17.02
2018-06-10T11:26:52.390Z,15.88
2018-06-10T11:29:20.677Z,17.07
2018-06-10T11:31:48.978Z,16.67
2018-06-10T11:34:17.244Z,17.55
2018-06-10T11:36:45.555Z,17.50
2018-06-10T11:39:13.822Z,16.75
2018-06-10T11:41:42.045Z,16.87
2018-06-10T11:44:10.329Z,17.43
2018-06-10T11:46:38.582Z,19.80
2018-06-10T11:49:06.560Z,19.90
2018-06-10T11:51:34.816Z,20.40
2018-06-10T11:54:03.079Z,19.23
2018-06-10T11:56:31.351Z,19.70
2018-06-10T11:58:59.615Z,19.10
2018-06-10T12:01:27.589Z,20.17
2018-06-10T12:03:55.879Z,20.17
2018-06-10T12:06:24.177Z,22.22
2018-06-10T12:08:52.410Z,21.15
2018-06-10T12:11:20.665Z,21.75
2018-06-10T12:13:48.973Z,22.03
2018-06-10T12:16:17.206Z,21.60
2018-06-10T12:18:45.470Z,26.20
2018-06-10T12:21:13.783Z,25.70
2018-06-10T12:23:42.008Z,28.23
2018-06-10T12:26:10.377Z,25.48
2018-06-10T12:28:38.379Z,27.90
2018-06-10T12:31:06.680Z,25.37
2018-06-10T12:33:35.766Z,23.87
2018-06-10T12:36:03.948Z,24.20
2018-06-10T12:38:32.353Z,24.12
2018-06-10T12:41:00.665Z,23.67
2018-06-10T12:43:29.052Z,23.98
2018-06-10T12:45:57.401Z,22.57
2018-06-10T12:48:25.651Z,22.07
2018-06-10T12:50:53.897Z,23.50
2018-06-10T12:53:22.432Z,22.07
2018-06-10T12:55:50.788Z,22.60
2018-06-10T12:58:19.067Z,21.60
2018-06-10T13:00:47.351Z,21.83
2018-06-10T13:03:15.633Z,20.53
2018-06-10T13:05:44.279Z,19.23
2018-06-10T13:08:12.571Z,18.10
2018-06-10T13:10:40.829Z,18.73
2018-06-10T13:13:09.084Z,18.52
2018-06-10T13:15:37.332Z,18.57
2018-06-10T13:18:05.618Z,17.60
2018-06-10T13:20:34.048Z,17.45
2018-06-10T13:25:53.094Z,18.45
2018-06-10T13:28:21.361Z,17.12
2018-06-10T13:30:49.649Z,14.75
2018-06-10T13:33:17.682Z,16.20
2018-06-10T13:35:45.956Z,15.33
2018-06-10T13:38:14.215Z,14.28
2018-06-10T13:40:42.187Z,13.70
2018-06-10T13:43:10.432Z,15.57
2018-06-10T13:45:38.706Z,13.90
2018-06-10T13:48:07.276Z,13.90
2018-06-10T13:50:35.538Z,14.70
2018-06-10T13:53:03.802Z,14.30
2018-06-10T13:55:32.119Z,15.93
2018-06-10T13:58:00.388Z,15.68
2018-06-10T14:00:28.675Z,15.68
2018-06-10T14:02:56.928Z,15.30
2018-06-10T14:05:25.188Z,15.57
2018-06-10T14:07:53.469Z,14.90
2018-06-10T14:10:21.710Z,13.93
2018-06-10T14:12:49.965Z,16.05
2018-06-10T14:15:18.258Z,14.38
2018-06-10T14:17:46.499Z,13.25
2018-06-10T14:20:14.760Z,14.60
2018-06-10T14:22:42.993Z,13.50
2018-06-10T14:25:11.246Z,13.88
2018-06-10T14:27:39.509Z,13.10
2018-06-10T14:30:07.806Z,14.03
2018-06-10T14:32:36.052Z,12.33
2018-06-10T14:35:04.337Z,13.10
2018-06-10T14:37:33.510Z,11.60
2018-06-10T14:40:01.740Z,13.38
2018-06-10T14:42:30.024Z,12.60
2018-06-10T14:44:58.309Z,12.70
2018-06-10T14:47:26.570Z,12.82
2018-06-10T14:49:54.834Z,13.08
2018-06-10T14:52:23.200Z,14.43
2018-06-10T14:54:51.480Z,13.75
2018-06-10T14:57:19.764Z,12.33
2018-06-10T14:59:47.756Z,14.03
2018-06-10T15:02:16.014Z,14.68
2018-06-10T15:04:44.277Z,13.45
2018-06-10T15:07:12.563Z,13.43
2018-06-10T15:09:40.855Z,12.68
2018-06-10T15:12:09.163Z,13.58
2018-06-10T15:14:37.472Z,12.88
2018-06-10T15:17:05.486Z,12.80
2018-06-10T15:19:33.764Z,15.75
2018-06-10T15:22:02.067Z,12.83
2018-06-10T15:24:30.380Z,13.00
2018-06-10T15:26:58.731Z,12.53
2018-06-10T15:29:26.994Z,14.50
2018-06-10T15:31:55.687Z,13.80
2018-06-10T15:34:23.943Z,12.05
2018-06-10T15:36:52.208Z,16.87
2018-06-10T15:39:20.538Z,12.40
2018-06-10T15:41:48.781Z,12.30
2018-06-10T15:44:17.019Z,11.10
2018-06-10T15:46:45.446Z,12.73
2018-06-10T15:49:13.705Z,10.55
2018-06-10T15:51:41.983Z,10.50
2018-06-10T15:54:10.301Z,11.93
2018-06-10T15:56:38.352Z,10.53
2018-06-10T15:59:06.595Z,11.28
2018-06-10T16:01:34.950Z,12.40
2018-06-10T16:04:03.230Z,10.80
2018-06-10T16:06:31.535Z,10.80
2018-06-10T16:08:59.818Z,10.80
2018-06-10T16:11:28.076Z,9.60
2018-06-10T16:13:56.334Z,9.95
2018-06-10T16:16:24.611Z,9.45
2018-06-10T16:18:52.879Z,9.30
2018-06-10T16:21:21.107Z,9.03
2018-06-10T16:23:49.352Z,11.15
2018-06-10T16:26:17.642Z,8.55
2018-06-10T16:28:45.899Z,8.38
2018-06-10T16:31:14.216Z,8.63
2018-06-10T16:33:42.544Z,8.60
2018-06-10T16:36:10.820Z,8.13
2018-06-10T16:38:39.110Z,7.92
2018-06-10T16:41:07.419Z,10.23
2018-06-10T16:43:35.746Z,8.35
2018-06-10T16:46:04.130Z,9.50
2018-06-10T16:48:32.436Z,9.43
2018-06-10T16:51:00.678Z,8.37
2018-06-10T16:53:28.951Z,9.45
2018-06-10T16:55:57.319Z,9.30
2018-06-10T16:58:25.555Z,10.25
2018-06-10T17:00:53.841Z,9.25
2018-06-10T17:03:22.071Z,12.50
2018-06-10T17:05:50.287Z,8.40
2018-06-10T17:08:18.616Z,9.23
2018-06-10T17:10:46.895Z,8.80
2018-06-10T17:13:14.923Z,8.50
2018-06-10T17:15:43.200Z,7.90
2018-06-10T17:18:11.439Z,8.45
2018-06-10T17:20:39.687Z,8.05
2018-06-10T17:23:07.674Z,7.58
2018-06-10T17:25:35.643Z,7.55
2018-06-10T17:28:03.892Z,11.20
2018-06-10T17:30:32.161Z,7.95
2018-06-10T17:33:00.455Z,8.13
2018-06-10T17:35:28.777Z,8.40
2018-06-10T17:37:57.023Z,12.30
2018-06-10T17:40:25.290Z,9.37
2018-06-10T17:42:53.253Z,10.30
2018-06-10T17:45:21.538Z,9.10
2018-06-10T17:47:49.806Z,11.40
2018-06-10T17:50:18.024Z,10.10
2018-06-10T17:52:46.320Z,11.88
2018-06-10T17:55:14.609Z,10.75
2018-06-10T17:57:42.835Z,10.08
2018-06-10T18:00:11.207Z,11.60
2018-06-10T18:02:39.454Z,12.28
2018-06-10T18:05:07.720Z,11.08
2018-06-10T18:07:35.963Z,11.50
2018-06-10T18:10:04.356Z,11.75
2018-06-10T18:12:32.599Z,12.10
2018-06-10T18:15:00.857Z,12.13
2018-06-10T18:17:29.175Z,12.03
2018-06-10T18:19:57.415Z,11.78
2018-06-10T18:22:25.671Z,12.60
2018-06-10T18:24:54.329Z,13.70
2018-06-10T18:27:22.572Z,13.78
2018-06-10T18:29:50.834Z,11.88
2018-06-10T18:32:19.102Z,13.30
2018-06-10T18:34:47.356Z,13.10
2018-06-10T18:37:15.605Z,13.60
2018-06-10T18:39:43.848Z,14.87
2018-06-10T18:42:12.096Z,16.32
2018-06-10T18:44:40.120Z,14.70
2018-06-10T18:47:08.351Z,15.30
2018-06-10T18:49:36.607Z,18.20
2018-06-10T18:52:04.878Z,16.23
2018-06-10T18:54:33.175Z,14.95
2018-06-10T18:57:01.412Z,15.65
2018-06-10T18:59:29.686Z,17.67
2018-06-10T19:01:57.927Z,16.00
2018-06-10T19:04:26.229Z,15.60
2018-06-10T19:06:54.482Z,16.15
2018-06-10T19:09:22.729Z,15.83
2018-06-10T19:11:50.998Z,15.78
2018-06-10T19:14:19.420Z,16.45
2018-06-10T19:16:47.645Z,20.05
2018-06-10T19:19:15.910Z,16.50
2018-06-10T19:21:43.941Z,19.92
2018-06-10T19:24:12.234Z,18.60
2018-06-10T19:26:40.752Z,17.15
2018-06-10T19:29:09.034Z,18.20
2018-06-10T19:31:37.271Z,17.80
2018-06-10T19:34:05.527Z,19.20
2018-06-10T19:36:33.792Z,19.60
2018-06-10T19:39:02.068Z,19.42
2018-06-10T19:41:30.319Z,21.50
2018-06-10T19:43:58.641Z,21.37
2018-06-10T19:46:26.979Z,20.10
2018-06-10T19:48:55.098Z,20.55
2018-06-10T19:51:23.457Z,18.60
2018-06-10T19:53:52.514Z,19.25
2018-06-10T19:56:20.796Z,18.87
2018-06-10T19:58:49.039Z,21.30
2018-06-10T20:01:17.314Z,21.00
2018-06-10T20:03:45.579Z,21.62
2018-06-10T20:06:13.892Z,20.17
2018-06-10T20:08:42.199Z,20.60
2018-06-10T20:11:10.450Z,21.43
2018-06-10T20:13:38.708Z,20.88
2018-06-10T20:16:07.082Z,18.98
2018-06-10T20:18:35.319Z,21.10
2018-06-10T20:21:03.569Z,19.92
2018-06-10T20:23:31.816Z,20.77
2018-06-10T20:26:00.118Z,22.55
2018-06-10T20:28:28.444Z,19.85
2018-06-10T20:30:56.719Z,21.12
2018-06-10T20:33:24.979Z,19.73
2018-06-10T20:35:53.239Z,20.27
2018-06-10T20:38:21.573Z,19.90
2018-06-10T20:40:49.827Z,25.20
2018-06-10T20:43:18.113Z,20.00
2018-06-10T20:45:46.378Z,20.62
2018-06-10T20:48:14.754Z,20.72
2018-06-10T20:50:42.992Z,22.40
2018-06-10T20:53:11.276Z,22.65
2018-06-10T20:55:39.514Z,21.95
2018-06-10T20:58:07.769Z,23.43
2018-06-10T21:00:36.110Z,20.72
2018-06-10T21:03:04.608Z,20.60
2018-06-10T21:05:32.909Z,23.20
2018-06-10T21:08:01.166Z,23.90
2018-06-10T21:10:29.568Z,21.80
2018-06-10T21:12:57.826Z,22.13
2018-06-10T21:15:26.201Z,23.83
2018-06-10T21:17:54.494Z,25.02
2018-06-10T21:20:22.724Z,23.27
2018-06-10T21:22:51.076Z,24.70
2018-06-10T21:25:19.319Z,28.38
2018-06-10T21:27:47.608Z,24.63
2018-06-10T21:30:16.269Z,25.70
2018-06-10T21:32:44.527Z,24.37
2018-06-10T21:35:12.536Z,25.52
2018-06-10T21:37:40.804Z,22.73
2018-06-10T21:40:08.817Z,25.10
2018-06-10T21:42:37.102Z,23.00
2018-06-10T21:45:05.671Z,23.43
2018-06-10T21:47:33.695Z,24.55
2018-06-10T21:50:01.955Z,21.97
2018-06-10T21:52:30.206Z,23.55
2018-06-10T21:54:58.464Z,22.50
2018-06-10T21:57:26.762Z,22.03
2018-06-10T21:59:55.024Z,21.73
2018-06-10T22:02:23.422Z,21.77
2018-06-10T22:04:51.699Z,21.77
2018-06-10T22:07:19.959Z,24.05
2018-06-10T22:09:48.320Z,22.60
2018-06-10T22:12:17.300Z,23.00
2018-06-10T22:14:45.625Z,23.77
2018-06-10T22:17:13.892Z,21.25
2018-06-10T22:19:42.163Z,20.50
2018-06-10T22:22:10.427Z,24.45
2018-06-10T22:24:38.668Z,21.05
2018-06-10T22:27:06.955Z,22.13
2018-06-10T22:29:35.274Z,23.32
2018-06-10T22:32:03.549Z,22.87
2018-06-10T22:34:31.813Z,20.32
2018-06-10T22:37:00.103Z,20.83
2018-06-10T22:39:28.365Z,23.00
2018-06-10T22:41:56.666Z,22.20
2018-06-10T22:44:24.934Z,23.42
2018-06-10T22:46:53.297Z,22.80
2018-06-10T22:49:21.563Z,24.37
2018-06-10T22:51:49.809Z,23.65
2018-06-10T22:54:39.086Z,23.83
2018-06-10T22:57:07.860Z,22.02
2018-06-10T22:59:35.890Z,22.10
2018-06-10T23:02:05.179Z,22.52
2018-06-10T23:04:33.424Z,21.62
2018-06-10T23:07:01.695Z,21.80
2018-06-10T23:09:30.130Z,24.10
2018-06-10T23:11:58.122Z,27.22
2018-06-10T23:14:26.389Z,22.55
2018-06-10T23:16:54.655Z,22.02
2018-06-10T23:19:22.947Z,23.05
2018-06-10T23:21:51.197Z,21.85
2018-06-10T23:24:19.463Z,23.40
2018-06-10T23:26:47.732Z,23.27
2018-06-10T23:29:16.056Z,21.87
2018-06-10T23:31:44.311Z,24.47
2018-06-10T23:34:12.507Z,23.98
2018-06-10T23:36:40.543Z,23.47
2018-06-10T23:39:08.791Z,22.83
2018-06-10T23:41:37.057Z,22.75
2018-06-10T23:44:05.263Z,26.02
2018-06-10T23:46:33.722Z,24.02
2018-06-10T23:49:02.001Z,22.20
2018-06-10T23:51:30.565Z,24.65
2018-06-10T23:54:00.833Z,24.23
2018-06-10T23:56:30.145Z,22.98
2018-06-10T23:58:58.893Z,23.43
